Bookmark and Share
Track history (hours):
 

CMA CGM Bahia

Last reported at 2014-Apr-23 00:00 UTC. Time now 2014-Apr-23 09:12 UTC.
Position N 26°42' W 014°30'.

Length 207.4 m; beam 29.8 m; draft 11.4 m.

Type: Cargo ship. MMSI: 304200000.

Wind from 320 at 17 knots

Barometer 1021.0 mb
Air temperature 19.0 ° C
Visibility: greater than 5.4 NM
Dewpoint 15.9 ° C

NotesDate/timePositionNaut miles runAvg speedWind from/ knotsBaromVisibWave heightAir tempDewpointWater temp
2014-Apr-23 00:00N 26°42' W 014°30'34714.5 320 / 171021.0 5.4 19.015.9
2014-Apr-22 00:00N 31°30' W 010°48'37113.0 330 / 171017.0 5.4 17.013.7
2014-Apr-20 19:29N 35°57' W 005°39'910.0
2014-Apr-20 18:33N 35°60' W 005°28'9 9.2
2014-Apr-20 17:33N 36°09' W 005°25'1 1.0
2014-Apr-20 16:32N 36°09' W 005°26'0 0.0
2014-Apr-20 15:32N 36°09' W 005°26'0 0.0
2014-Apr-20 14:32N 36°09' W 005°26'0 0.0
2014-Apr-20 13:32N 36°09' W 005°26'0 0.0
2014-Apr-20 12:09N 36°09' W 005°26'0 0.0
2014-Apr-20 11:27N 36°09' W 005°26'0 0.0
2014-Apr-20 10:18N 36°09' W 005°26'0 0.0
2014-Apr-20 09:33N 36°09' W 005°26'0 0.0
2014-Apr-20 08:22N 36°09' W 005°26'0 0.0
2014-Apr-20 07:28N 36°09' W 005°26'0 0.0
2014-Apr-20 05:16N 36°09' W 005°26'0 0.0
2014-Apr-20 04:31N 36°09' W 005°26'0 0.0
2014-Apr-20 03:25N 36°09' W 005°26'0 0.0
2014-Apr-20 02:25N 36°09' W 005°26'0 0.0
2014-Apr-20 01:19N 36°09' W 005°26'0 0.0
2014-Apr-19 22:13N 36°09' W 005°26'0 0.0
2014-Apr-19 21:27N 36°09' W 005°26'0 0.0
2014-Apr-19 20:33N 36°09' W 005°26'0 0.0
2014-Apr-19 19:33N 36°09' W 005°26'0 0.0
2014-Apr-19 16:33N 36°09' W 005°26'0 0.0
2014-Apr-19 15:32N 36°09' W 005°26'0 0.0
2014-Apr-19 14:26N 36°09' W 005°26'0 0.0
2014-Apr-19 13:32N 36°09' W 005°26'0 0.0
2014-Apr-19 12:32N 36°09' W 005°26'0 0.0
2014-Apr-19 11:29N 36°09' W 005°26'0 0.0
2014-Apr-19 10:28N 36°09' W 005°26'0 0.0
2014-Apr-19 09:28N 36°09' W 005°26'0 0.4
2014-Apr-19 08:33N 36°09' W 005°26'7 7.5
2014-Apr-19 07:33N 36°04' W 005°19'1 0.6
2014-Apr-19 06:33N 36°03' W 005°19'3 2.7
2014-Apr-19 05:33N 36°02' W 005°22'1010.0
2014-Apr-19 04:31N 35°54' W 005°30'1 0.6
2014-Apr-19 03:20N 35°53' W 005°30'1 0.1
2014-Apr-18 11:25N 35°54' W 005°30'5 5.6
2014-Apr-18 10:34N 35°59' W 005°28'1111.1
2014-Apr-18 09:33N 36°02' W 005°15'6 5.6
2014-Apr-18 08:33N 36°04' W 005°09'1 1.1
2014-Apr-18 07:33N 36°05' W 005°09'1 1.0
2014-Apr-18 06:33N 36°06' W 005°10'1 0.6
2014-Apr-18 05:33N 36°06' W 005°09'42 1.6
2014-Apr-17 03:34N 36°32' W 004°28'1514.7
2014-Apr-17 02:33N 36°22' W 004°41'1514.6
2014-Apr-17 01:33N 36°11' W 004°54'1313.5
2014-Apr-17 00:33N 36°05' W 005°09'1414.0
2014-Apr-16 23:34N 35°59' W 005°24'1514.5
2014-Apr-16 22:33N 35°54' W 005°41'1513.3
2014-Apr-16 21:26N 35°51' W 005°59'64914.3
2014-Apr-15 00:00N 27°24' W 013°54'29514.0 variable / 11015.0 5.4 21.018.0
2014-Apr-14 03:00N 23°18' W 016°54'   360 / 101014.0 5.4 18.014.8

Dump ship's entire track history

sailing weather and tide predictions

CMA CGM Bahia — V2KU — position and weather